createdAt,value
2023-04-23T00:00:59.328Z,25.10
2023-04-23T00:01:59.427Z,25.18
2023-04-23T00:02:59.450Z,25.20
2023-04-23T00:03:59.502Z,25.18
2023-04-23T00:04:59.483Z,25.18
2023-04-23T00:05:59.447Z,25.31
2023-04-23T00:06:59.451Z,25.24
2023-04-23T00:07:59.496Z,25.34
2023-04-23T00:08:59.518Z,25.33
2023-04-23T00:09:59.549Z,25.30
2023-04-23T00:10:59.623Z,25.32
2023-04-23T00:11:59.621Z,25.33
2023-04-23T00:12:59.629Z,25.33
2023-04-23T00:13:59.671Z,25.33
2023-04-23T00:14:59.702Z,25.33
2023-04-23T00:15:59.785Z,25.30
2023-04-23T00:16:59.771Z,25.31
2023-04-23T00:17:59.846Z,25.27
2023-04-23T00:18:59.796Z,25.37
2023-04-23T00:19:59.893Z,25.35
2023-04-23T00:20:59.892Z,25.34
2023-04-23T00:21:59.969Z,25.33
2023-04-23T00:22:59.956Z,25.32
2023-04-23T00:24:00.036Z,25.31
2023-04-23T00:25:00.054Z,25.38
2023-04-23T00:26:00.090Z,25.34
2023-04-23T00:27:00.166Z,25.31
2023-04-23T00:28:00.161Z,25.38
2023-04-23T00:29:00.192Z,25.38
2023-04-23T00:30:00.222Z,25.41
2023-04-23T00:31:00.260Z,25.38
2023-04-23T00:32:00.359Z,25.49
2023-04-23T00:33:00.379Z,25.53
2023-04-23T00:34:00.388Z,25.53
2023-04-23T00:35:00.427Z,25.56
2023-04-23T00:36:00.504Z,25.56
2023-04-23T00:37:00.565Z,25.52
2023-04-23T00:38:00.555Z,25.53
2023-04-23T00:39:00.587Z,25.53
2023-04-23T00:40:00.658Z,25.54
2023-04-23T00:41:00.713Z,25.58
2023-04-23T00:42:00.745Z,25.59
2023-04-23T00:43:00.765Z,25.58
2023-04-23T00:44:00.781Z,25.56
2023-04-23T00:45:00.929Z,25.57
2023-04-23T00:46:00.961Z,25.57
2023-04-23T00:47:00.987Z,25.61
2023-04-23T00:48:01.036Z,25.61
2023-04-23T00:49:01.030Z,25.58
2023-04-23T00:50:01.107Z,25.58
2023-04-23T00:51:01.152Z,25.65
2023-04-23T00:52:01.236Z,25.67
2023-04-23T00:53:01.294Z,25.71
2023-04-23T00:54:01.360Z,25.66
2023-04-23T00:55:01.306Z,25.65
2023-04-23T00:56:01.351Z,25.66
2023-04-23T00:57:01.393Z,25.66
2023-04-23T00:58:01.551Z,25.76
2023-04-23T00:59:01.477Z,25.77
2023-04-23T01:00:01.551Z,25.84
2023-04-23T01:01:01.625Z,25.82
2023-04-23T01:02:01.656Z,25.82
2023-04-23T01:03:01.816Z,25.82
2023-04-23T01:04:01.982Z,25.88
2023-04-23T01:05:01.866Z,25.91
2023-04-23T01:06:01.964Z,25.87
2023-04-23T01:07:01.907Z,25.93
2023-04-23T01:08:02.150Z,25.99
2023-04-23T01:09:02.019Z,25.98
2023-04-23T01:10:02.080Z,25.99
2023-04-23T01:11:02.106Z,25.96
2023-04-23T01:12:02.184Z,25.98
2023-04-23T01:13:02.199Z,26.01
2023-04-23T01:14:02.308Z,26.02
2023-04-23T01:15:02.306Z,26.05
2023-04-23T01:16:02.339Z,26.03
2023-04-23T01:17:02.477Z,26.10
2023-04-23T01:18:02.399Z,26.12
2023-04-23T01:19:02.445Z,26.14
2023-04-23T01:20:02.487Z,26.14
2023-04-23T01:21:02.552Z,26.16
2023-04-23T01:22:02.618Z,26.17
2023-04-23T01:23:02.629Z,26.14
2023-04-23T01:24:02.690Z,26.15
2023-04-23T01:25:02.746Z,26.21
2023-04-23T01:26:02.800Z,26.26
2023-04-23T01:27:02.829Z,26.27
2023-04-23T01:28:02.890Z,26.31
2023-04-23T01:29:02.947Z,26.32
2023-04-23T01:30:03.034Z,26.37
2023-04-23T01:31:03.106Z,26.41
2023-04-23T01:32:03.064Z,26.45
2023-04-23T01:33:03.137Z,26.45
2023-04-23T01:34:03.216Z,26.48
2023-04-23T01:35:03.219Z,26.46
2023-04-23T01:36:03.342Z,26.50
2023-04-23T01:37:03.377Z,26.49
2023-04-23T01:38:03.388Z,26.46
2023-04-23T01:39:03.462Z,26.49
2023-04-23T01:40:03.520Z,26.50
2023-04-23T01:41:03.545Z,26.55
2023-04-23T01:42:03.611Z,26.58
2023-04-23T01:43:03.673Z,26.58
2023-04-23T01:44:03.762Z,26.57
2023-04-23T01:45:03.742Z,26.57
2023-04-23T01:46:03.884Z,26.57
2023-04-23T01:47:06.357Z,26.61
2023-04-23T01:48:03.880Z,26.65
2023-04-23T01:49:03.854Z,26.71
2023-04-23T01:50:04.010Z,26.67
2023-04-23T01:51:03.818Z,26.72
2023-04-23T01:52:03.859Z,26.70
2023-04-23T01:53:03.847Z,26.79
2023-04-23T01:54:03.809Z,26.80
2023-04-23T01:55:03.822Z,26.82
2023-04-23T01:56:03.816Z,26.83
2023-04-23T01:57:03.836Z,26.87
2023-04-23T01:58:03.824Z,26.90
2023-04-23T01:59:03.790Z,26.94
2023-04-23T02:00:03.760Z,26.94
2023-04-23T02:01:03.727Z,26.91
2023-04-23T02:02:03.889Z,26.94
2023-04-23T02:03:03.958Z,26.94
2023-04-23T02:04:03.897Z,26.92
2023-04-23T02:05:03.734Z,26.91
2023-04-23T02:06:03.700Z,26.89
2023-04-23T02:07:03.737Z,26.91
2023-04-23T02:08:03.784Z,26.92
2023-04-23T02:09:03.754Z,26.96
2023-04-23T02:10:03.691Z,26.93
2023-04-23T02:11:03.698Z,26.97
2023-04-23T02:12:03.715Z,26.93
2023-04-23T02:13:03.722Z,26.93
2023-04-23T02:14:03.690Z,26.95
2023-04-23T02:15:03.685Z,26.98
2023-04-23T02:16:03.747Z,26.90
2023-04-23T02:17:03.670Z,26.90
2023-04-23T02:18:03.643Z,26.95
2023-04-23T02:19:03.653Z,26.89
2023-04-23T02:20:03.615Z,26.89
2023-04-23T02:21:03.627Z,26.85
2023-04-23T02:22:03.645Z,26.85
2023-04-23T02:23:03.681Z,26.82
2023-04-23T02:24:03.792Z,26.80
2023-04-23T02:25:03.806Z,26.71
2023-04-23T02:26:03.878Z,26.73
2023-04-23T02:27:03.946Z,26.71
2023-04-23T02:28:04.018Z,26.70
2023-04-23T02:29:04.102Z,26.66
2023-04-23T02:30:04.103Z,26.63
2023-04-23T02:31:04.183Z,26.59
2023-04-23T02:32:04.284Z,26.57
2023-04-23T02:33:04.325Z,26.52
2023-04-23T02:34:04.372Z,26.46
2023-04-23T02:35:04.443Z,26.44
2023-04-23T02:36:04.483Z,26.44
2023-04-23T02:37:04.558Z,26.43
2023-04-23T02:38:04.613Z,26.45
2023-04-23T02:39:04.640Z,26.50
2023-04-23T02:40:04.723Z,26.55
2023-04-23T02:41:04.835Z,26.51
2023-04-23T02:42:04.893Z,26.57
2023-04-23T02:43:04.971Z,26.53
2023-04-23T02:44:05.017Z,26.52
2023-04-23T02:45:05.015Z,26.53
2023-04-23T02:46:05.086Z,26.59
2023-04-23T02:47:05.270Z,26.57
2023-04-23T02:48:05.268Z,26.52
2023-04-23T02:49:05.294Z,26.56
2023-04-23T02:50:05.318Z,26.55
2023-04-23T02:51:05.409Z,26.52
2023-04-23T02:52:05.468Z,26.58
2023-04-23T02:53:05.518Z,26.57
2023-04-23T02:54:05.689Z,26.52
2023-04-23T02:55:05.706Z,26.57
2023-04-23T02:56:05.753Z,26.60
2023-04-23T02:57:05.799Z,26.55
2023-04-23T02:58:05.866Z,26.50
2023-04-23T02:59:05.910Z,26.50
2023-04-23T03:00:05.980Z,26.56
2023-04-23T03:01:06.068Z,26.49
2023-04-23T03:02:06.146Z,26.49
2023-04-23T03:03:06.243Z,26.48
2023-04-23T03:04:06.400Z,26.42
2023-04-23T03:05:06.271Z,26.49
2023-04-23T03:06:06.274Z,26.41
2023-04-23T03:07:06.393Z,26.45
2023-04-23T03:08:06.452Z,26.48
2023-04-23T03:09:06.490Z,26.44
2023-04-23T03:10:06.549Z,26.41
2023-04-23T03:11:06.562Z,26.48
2023-04-23T03:12:06.623Z,26.43
2023-04-23T03:13:06.714Z,26.52
2023-04-23T03:14:06.714Z,26.50
2023-04-23T03:15:06.754Z,26.55
2023-04-23T03:16:06.757Z,26.58
2023-04-23T03:17:06.824Z,26.62
2023-04-23T03:18:06.850Z,26.59
2023-04-23T03:19:06.832Z,26.58
2023-04-23T03:20:06.896Z,26.59
2023-04-23T03:21:06.869Z,26.66
2023-04-23T03:22:06.918Z,26.68
2023-04-23T03:23:06.960Z,26.69
2023-04-23T03:24:06.969Z,26.72
2023-04-23T03:25:06.957Z,26.73
2023-04-23T03:26:06.966Z,26.78
2023-04-23T03:27:06.980Z,26.75
2023-04-23T03:28:06.983Z,26.82
2023-04-23T03:29:07.033Z,26.86
2023-04-23T03:30:06.995Z,26.86
2023-04-23T03:31:06.994Z,26.88
2023-04-23T03:32:06.946Z,26.86
2023-04-23T03:33:07.024Z,26.92
2023-04-23T03:34:06.988Z,26.94
2023-04-23T03:35:06.926Z,26.93
2023-04-23T03:36:06.956Z,26.88
2023-04-23T03:37:06.945Z,26.89
2023-04-23T03:38:06.914Z,26.89
2023-04-23T03:39:06.959Z,26.92
2023-04-23T03:40:06.967Z,26.93
2023-04-23T03:41:06.981Z,27.00
2023-04-23T03:42:06.943Z,26.93
2023-04-23T03:43:06.924Z,26.93
2023-04-23T03:44:07.312Z,26.90
2023-04-23T03:45:06.959Z,26.94
2023-04-23T03:46:07.050Z,26.96
2023-04-23T03:47:06.909Z,27.01
2023-04-23T03:48:06.907Z,26.96
2023-04-23T03:49:06.943Z,27.00
2023-04-23T03:50:06.964Z,26.95
2023-04-23T03:51:06.899Z,27.02
2023-04-23T03:52:06.914Z,27.04
2023-04-23T03:53:06.913Z,27.01
2023-04-23T03:54:06.958Z,27.05
2023-04-23T03:55:06.941Z,27.06
2023-04-23T03:56:06.934Z,27.08
2023-04-23T03:57:06.920Z,27.16
2023-04-23T03:58:06.912Z,27.16
2023-04-23T03:59:07.011Z,27.17
2023-04-23T04:00:06.912Z,27.11
2023-04-23T04:01:06.865Z,27.08
2023-04-23T04:02:07.015Z,27.13
2023-04-23T04:03:07.215Z,27.11
2023-04-23T04:04:07.142Z,27.13
2023-04-23T04:05:07.215Z,27.19
2023-04-23T04:06:06.902Z,27.22
2023-04-23T04:07:06.904Z,27.20
2023-04-23T04:08:06.842Z,27.20
2023-04-23T04:09:06.852Z,27.23
2023-04-23T04:10:06.829Z,27.22
2023-04-23T04:11:06.829Z,27.22
2023-04-23T04:12:06.874Z,27.27
2023-04-23T04:13:06.835Z,27.26
2023-04-23T04:14:06.816Z,27.27
2023-04-23T04:15:06.823Z,27.24
2023-04-23T04:16:06.875Z,27.28
2023-04-23T04:17:06.852Z,27.31
2023-04-23T04:18:06.841Z,27.28
2023-04-23T04:19:06.885Z,27.31
2023-04-23T04:20:06.825Z,27.26
2023-04-23T04:21:06.866Z,27.33
2023-04-23T04:22:06.858Z,27.34
2023-04-23T04:23:06.844Z,27.38
2023-04-23T04:24:06.857Z,27.37
2023-04-23T04:25:06.862Z,27.39
2023-04-23T04:26:06.872Z,27.43
2023-04-23T04:27:06.850Z,27.46
2023-04-23T04:28:06.838Z,27.49
2023-04-23T04:29:06.886Z,27.50
2023-04-23T04:30:06.829Z,27.57
2023-04-23T04:31:06.915Z,27.64
2023-04-23T04:32:06.823Z,27.77
2023-04-23T04:33:06.914Z,27.83
2023-04-23T04:34:06.835Z,27.87
2023-04-23T04:35:06.844Z,27.96
2023-04-23T04:36:06.842Z,27.97
2023-04-23T04:37:06.846Z,28.02
2023-04-23T04:38:06.848Z,28.05
2023-04-23T04:39:06.847Z,28.00
2023-04-23T04:40:06.822Z,28.07
2023-04-23T04:41:06.869Z,28.15
2023-04-23T04:42:06.817Z,28.19
2023-04-23T04:43:06.875Z,28.25
2023-04-23T04:44:06.892Z,28.25
2023-04-23T04:45:06.856Z,28.30
2023-04-23T04:46:07.761Z,28.34
2023-04-23T04:47:06.932Z,28.29
2023-04-23T04:48:06.844Z,28.29
2023-04-23T04:49:06.863Z,28.23
2023-04-23T04:50:06.826Z,28.19
2023-04-23T04:51:06.827Z,28.11
2023-04-23T04:52:06.845Z,28.09
2023-04-23T04:53:06.846Z,28.01
2023-04-23T04:54:06.848Z,28.06
2023-04-23T04:55:06.920Z,28.03
2023-04-23T04:56:06.859Z,28.09
2023-04-23T04:57:06.831Z,28.07
2023-04-23T04:58:06.795Z,28.19
2023-04-23T04:59:06.805Z,28.13
2023-04-23T05:00:06.792Z,28.14
2023-04-23T05:01:06.825Z,28.07
2023-04-23T05:02:06.895Z,28.12
2023-04-23T05:03:06.961Z,28.14
2023-04-23T05:04:07.039Z,28.12
2023-04-23T05:05:06.948Z,28.14
2023-04-23T05:06:06.828Z,28.04
2023-04-23T05:07:06.839Z,28.03
2023-04-23T05:08:06.785Z,28.04
2023-04-23T05:09:06.793Z,28.04
2023-04-23T05:10:06.830Z,28.05
2023-04-23T05:11:06.791Z,28.01
2023-04-23T05:12:06.810Z,27.94
2023-04-23T05:13:06.833Z,27.90
2023-04-23T05:14:06.840Z,27.93
2023-04-23T05:15:06.849Z,27.93
2023-04-23T05:16:06.845Z,27.91
2023-04-23T05:17:06.794Z,27.87
2023-04-23T05:18:06.829Z,27.89
2023-04-23T05:19:06.809Z,27.93
2023-04-23T05:20:06.833Z,27.89
2023-04-23T05:21:06.832Z,27.91
2023-04-23T05:22:06.841Z,27.94
2023-04-23T05:23:06.846Z,27.84
2023-04-23T05:24:06.824Z,27.88
2023-04-23T05:25:06.848Z,27.88
2023-04-23T05:26:06.867Z,27.96
2023-04-23T05:27:06.842Z,27.90
2023-04-23T05:28:06.870Z,27.91
2023-04-23T05:29:06.914Z,27.94
2023-04-23T05:30:06.885Z,27.95
2023-04-23T05:31:06.896Z,27.95
2023-04-23T05:32:06.962Z,27.96
2023-04-23T05:33:07.024Z,28.02
2023-04-23T05:34:07.370Z,27.98
2023-04-23T05:35:06.938Z,28.01
2023-04-23T05:36:06.928Z,28.01
2023-04-23T05:37:06.956Z,28.01
2023-04-23T05:38:06.937Z,28.05
2023-04-23T05:39:07.007Z,28.01
2023-04-23T05:40:07.021Z,27.97
2023-04-23T05:41:07.012Z,28.04
2023-04-23T05:42:06.990Z,28.06
2023-04-23T05:43:06.963Z,27.98
2023-04-23T05:44:06.990Z,28.00
2023-04-23T05:45:08.526Z,27.98
2023-04-23T05:46:07.188Z,28.01
2023-04-23T05:47:07.000Z,28.08
2023-04-23T05:48:06.949Z,28.10
2023-04-23T05:49:07.032Z,28.12
2023-04-23T05:50:07.024Z,28.11
2023-04-23T05:51:06.990Z,28.11
2023-04-23T05:52:07.037Z,28.14
2023-04-23T05:53:07.082Z,28.12
2023-04-23T05:54:06.982Z,28.14
2023-04-23T05:55:07.045Z,28.07
2023-04-23T05:56:06.976Z,28.03
2023-04-23T05:57:06.991Z,28.02
2023-04-23T05:58:07.017Z,28.07
2023-04-23T05:59:07.018Z,28.02
2023-04-23T06:00:07.040Z,28.10
2023-04-23T06:01:07.054Z,28.15
2023-04-23T06:02:07.059Z,28.07
2023-04-23T06:03:07.145Z,28.04
2023-04-23T06:04:07.249Z,28.08
2023-04-23T06:05:07.166Z,28.14
2023-04-23T06:06:07.014Z,28.14
2023-04-23T06:07:07.036Z,28.14
2023-04-23T06:08:06.979Z,28.11
2023-04-23T06:09:07.000Z,28.10
2023-04-23T06:10:07.047Z,28.23
2023-04-23T06:11:06.998Z,28.19
2023-04-23T06:12:07.010Z,28.22
2023-04-23T06:13:07.019Z,28.28
2023-04-23T06:14:06.961Z,28.28
2023-04-23T06:15:06.976Z,28.23
2023-04-23T06:16:07.034Z,28.31
2023-04-23T06:17:06.984Z,28.29
2023-04-23T06:18:07.123Z,28.29
2023-04-23T06:19:07.006Z,28.32
2023-04-23T06:20:06.952Z,28.27
2023-04-23T06:21:07.045Z,28.28
2023-04-23T06:22:06.961Z,28.29
2023-04-23T06:23:06.966Z,28.27
2023-04-23T06:24:06.975Z,28.29
2023-04-23T06:25:06.992Z,28.28
2023-04-23T06:26:07.000Z,28.29
2023-04-23T06:27:06.990Z,28.30
2023-04-23T06:28:07.089Z,28.28
2023-04-23T06:29:07.012Z,28.26
2023-04-23T06:30:07.025Z,28.34
2023-04-23T06:31:07.052Z,28.33
2023-04-23T06:32:07.032Z,28.38
2023-04-23T06:33:07.091Z,28.36
2023-04-23T06:34:07.123Z,28.43
2023-04-23T06:35:07.434Z,28.42
2023-04-23T06:36:07.124Z,28.48
2023-04-23T06:37:07.150Z,28.49
2023-04-23T06:38:07.232Z,28.52
2023-04-23T06:39:07.280Z,28.52
2023-04-23T06:40:07.278Z,28.53
2023-04-23T06:41:07.359Z,28.57
2023-04-23T06:42:07.409Z,28.55
2023-04-23T06:43:07.457Z,28.52
2023-04-23T06:44:07.482Z,28.57
2023-04-23T06:45:07.527Z,28.60
2023-04-23T06:46:07.613Z,28.59
2023-04-23T06:47:07.717Z,28.61
2023-04-23T06:48:07.736Z,28.62
2023-04-23T06:49:07.706Z,28.71
2023-04-23T06:50:07.786Z,28.64
2023-04-23T06:51:07.851Z,28.66
2023-04-23T06:52:07.868Z,28.61
2023-04-23T06:53:07.960Z,28.69
2023-04-23T06:54:08.003Z,28.68
2023-04-23T06:55:08.078Z,28.66
2023-04-23T06:56:08.091Z,28.70
2023-04-23T06:57:08.211Z,28.81
2023-04-23T06:58:08.128Z,28.85
2023-04-23T06:59:08.131Z,28.86
2023-04-23T07:00:08.099Z,28.84
2023-04-23T07:01:08.130Z,28.85
2023-04-23T07:02:08.163Z,28.83
2023-04-23T07:03:08.217Z,28.78
2023-04-23T07:04:08.205Z,28.77
2023-04-23T07:05:08.139Z,28.78
2023-04-23T07:06:08.151Z,28.77
2023-04-23T07:07:08.143Z,28.75
2023-04-23T07:08:08.162Z,28.73
2023-04-23T07:09:08.160Z,28.77
2023-04-23T07:10:08.172Z,28.74
2023-04-23T07:11:08.225Z,28.70
2023-04-23T07:12:08.301Z,28.76
2023-04-23T07:13:08.296Z,28.70
2023-04-23T07:14:08.313Z,28.65
2023-04-23T07:15:08.344Z,28.68
2023-04-23T07:16:08.473Z,28.68
2023-04-23T07:17:08.482Z,28.64
2023-04-23T07:18:08.451Z,28.68
2023-04-23T07:19:08.563Z,28.65
2023-04-23T07:20:08.591Z,28.64
2023-04-23T07:21:08.671Z,28.68
2023-04-23T07:22:08.722Z,28.64
2023-04-23T07:23:08.772Z,28.64
2023-04-23T07:24:08.840Z,28.64
2023-04-23T07:25:08.952Z,28.63
2023-04-23T07:26:08.947Z,28.59
2023-04-23T07:27:09.005Z,28.56
2023-04-23T07:28:09.074Z,28.60
2023-04-23T07:29:09.131Z,28.58
2023-04-23T07:30:09.267Z,28.64
2023-04-23T07:31:09.251Z,28.55
2023-04-23T07:32:09.353Z,28.51
2023-04-23T07:33:09.460Z,28.52
2023-04-23T07:34:09.413Z,28.47
2023-04-23T07:35:09.486Z,28.47
2023-04-23T07:36:09.530Z,28.50
2023-04-23T07:37:09.560Z,28.55
2023-04-23T07:38:09.707Z,28.52
2023-04-23T07:39:09.660Z,28.54
2023-04-23T07:40:09.724Z,28.62
2023-04-23T07:41:09.774Z,28.55
2023-04-23T07:42:09.837Z,28.61
2023-04-23T07:43:09.882Z,28.61
2023-04-23T07:44:09.949Z,28.60
2023-04-23T07:45:09.963Z,28.59
2023-04-23T07:46:10.049Z,28.57
2023-04-23T07:47:10.071Z,28.61
2023-04-23T07:48:10.127Z,28.68
2023-04-23T07:49:10.130Z,28.60
2023-04-23T07:50:10.210Z,28.56
2023-04-23T07:51:10.241Z,28.55
2023-04-23T07:52:10.247Z,28.50
2023-04-23T07:53:10.324Z,28.43
2023-04-23T07:54:10.373Z,28.47
2023-04-23T07:55:10.388Z,28.47
2023-04-23T07:56:10.509Z,28.43
2023-04-23T07:57:10.441Z,28.39
2023-04-23T07:58:10.502Z,28.29
2023-04-23T07:59:10.577Z,28.29
2023-04-23T08:00:10.615Z,28.24
2023-04-23T08:01:10.740Z,28.19
2023-04-23T08:02:10.723Z,28.17
2023-04-23T08:03:10.808Z,28.13
2023-04-23T08:04:10.947Z,28.12
2023-04-23T08:05:11.007Z,28.11
2023-04-23T08:06:10.824Z,28.08
2023-04-23T08:07:10.828Z,28.03
2023-04-23T08:08:10.822Z,27.97
2023-04-23T08:09:10.881Z,28.02
2023-04-23T08:10:10.907Z,27.95
2023-04-23T08:11:10.893Z,27.96
2023-04-23T08:12:10.945Z,27.91
2023-04-23T08:13:11.004Z,27.84
2023-04-23T08:14:10.973Z,27.82
2023-04-23T08:15:11.054Z,27.83
2023-04-23T08:16:11.042Z,27.83
2023-04-23T08:17:11.022Z,27.80
2023-04-23T08:18:11.030Z,27.78
2023-04-23T08:19:11.045Z,27.78
2023-04-23T08:20:11.044Z,27.79
2023-04-23T08:21:11.113Z,27.80
2023-04-23T08:22:11.110Z,27.76
2023-04-23T08:23:11.072Z,27.78
2023-04-23T08:24:11.091Z,27.80
2023-04-23T08:25:11.160Z,27.77
2023-04-23T08:26:11.101Z,27.70
2023-04-23T08:27:11.124Z,27.76
2023-04-23T08:28:11.165Z,27.70
2023-04-23T08:29:11.672Z,27.65
2023-04-23T08:30:11.229Z,27.58
2023-04-23T08:31:22.788Z,27.55
2023-04-23T08:32:12.198Z,27.53
2023-04-23T08:33:11.143Z,27.43
2023-04-23T08:34:11.141Z,27.34
2023-04-23T08:35:11.113Z,27.37
2023-04-23T08:36:11.108Z,27.27
2023-04-23T08:37:16.736Z,27.22
2023-04-23T08:38:12.288Z,27.17
2023-04-23T08:39:11.097Z,27.19
2023-04-23T08:40:11.096Z,27.16
2023-04-23T08:41:11.082Z,27.15
2023-04-23T08:42:11.207Z,27.12
2023-04-23T08:43:11.068Z,27.18
2023-04-23T08:44:11.066Z,27.03
2023-04-23T08:45:11.033Z,27.02
2023-04-23T08:46:11.056Z,27.00
2023-04-23T08:47:11.026Z,26.96
2023-04-23T08:48:11.035Z,26.92
2023-04-23T08:49:11.062Z,26.79
2023-04-23T08:50:11.030Z,26.73
2023-04-23T08:51:11.005Z,26.69
2023-04-23T08:52:11.037Z,26.69
2023-04-23T08:53:10.975Z,26.69
2023-04-23T08:54:11.038Z,26.69
2023-04-23T08:55:11.054Z,26.70
2023-04-23T08:56:10.987Z,26.69
2023-04-23T08:57:10.944Z,26.70
2023-04-23T08:58:11.006Z,26.66
2023-04-23T08:59:10.977Z,26.64
2023-04-23T09:00:10.959Z,26.61
2023-04-23T09:01:11.030Z,26.59
2023-04-23T09:02:11.051Z,26.61
2023-04-23T09:03:11.220Z,26.56
2023-04-23T09:04:10.938Z,26.52
2023-04-23T09:05:10.902Z,26.50
2023-04-23T09:06:10.904Z,26.45
2023-04-23T09:07:10.917Z,26.47
2023-04-23T09:08:10.909Z,26.51
2023-04-23T09:09:10.877Z,26.44
2023-04-23T09:10:10.874Z,26.42
2023-04-23T09:11:10.893Z,26.47
2023-04-23T09:12:10.900Z,26.43
2023-04-23T09:13:10.944Z,26.43
2023-04-23T09:14:10.956Z,26.42
2023-04-23T09:15:11.058Z,26.49
2023-04-23T09:16:11.113Z,26.50
2023-04-23T09:17:11.124Z,26.46
2023-04-23T09:18:11.355Z,26.49
2023-04-23T09:19:11.264Z,26.52
2023-04-23T09:20:11.344Z,26.57
2023-04-23T09:21:11.354Z,26.63
2023-04-23T09:22:11.934Z,26.53
2023-04-23T09:23:11.488Z,26.61
2023-04-23T09:24:11.560Z,26.64
2023-04-23T09:25:11.603Z,26.71
2023-04-23T09:26:11.774Z,26.72
2023-04-23T09:27:11.700Z,26.72
2023-04-23T09:28:11.729Z,26.72
2023-04-23T09:29:11.785Z,26.78
2023-04-23T09:30:11.832Z,26.77
2023-04-23T09:31:11.897Z,26.79
2023-04-23T09:32:12.055Z,26.79
2023-04-23T09:33:12.068Z,26.81
2023-04-23T09:34:12.129Z,26.73
2023-04-23T09:35:12.187Z,26.71
2023-04-23T09:36:12.193Z,26.77
2023-04-23T09:37:12.301Z,26.73
2023-04-23T09:38:12.336Z,26.84
2023-04-23T09:39:12.409Z,26.79
2023-04-23T09:40:12.434Z,26.87
2023-04-23T09:41:12.511Z,26.87
2023-04-23T09:42:12.598Z,26.85
2023-04-23T09:43:12.603Z,26.91
2023-04-23T09:44:12.648Z,26.94
2023-04-23T09:45:12.722Z,26.89
2023-04-23T09:46:12.829Z,26.93
2023-04-23T09:47:12.771Z,26.96
2023-04-23T09:48:12.843Z,27.00
2023-04-23T09:49:12.884Z,26.96
2023-04-23T09:50:12.949Z,26.90
2023-04-23T09:51:12.983Z,26.84
2023-04-23T09:52:13.056Z,26.87
2023-04-23T09:53:13.077Z,26.84
2023-04-23T09:54:13.111Z,26.83
2023-04-23T09:55:13.195Z,26.84
2023-04-23T09:56:13.197Z,26.81
2023-04-23T09:57:13.238Z,26.77
2023-04-23T09:58:13.286Z,26.75
2023-04-23T09:59:13.425Z,26.85
2023-04-23T10:00:14.729Z,26.80
2023-04-23T10:01:15.942Z,26.78
2023-04-23T10:02:13.840Z,26.65
2023-04-23T10:03:13.769Z,26.60
2023-04-23T10:04:13.798Z,26.61
2023-04-23T10:05:23.511Z,26.60
2023-04-23T10:06:25.532Z,26.72
2023-04-23T10:07:18.929Z,26.59
2023-04-23T10:08:14.679Z,26.67
2023-04-23T10:09:13.686Z,26.61
2023-04-23T10:10:13.637Z,26.55
2023-04-23T10:11:20.706Z,26.59
2023-04-23T10:13:13.614Z,26.59
2023-04-23T10:14:13.667Z,26.67
2023-04-23T10:15:13.618Z,26.70
2023-04-23T10:16:22.467Z,26.69
2023-04-23T10:17:14.624Z,26.66
2023-04-23T10:18:13.578Z,26.62
2023-04-23T10:19:13.591Z,26.63
2023-04-23T10:20:13.599Z,26.61
2023-04-23T10:21:13.563Z,26.58
2023-04-23T10:23:13.588Z,26.54
2023-04-23T10:24:13.593Z,26.55
2023-04-23T10:25:13.608Z,26.67
2023-04-23T10:26:13.547Z,26.64
2023-04-23T10:27:23.905Z,26.65
2023-04-23T10:28:14.495Z,26.67
2023-04-23T10:29:13.550Z,26.67
2023-04-23T10:30:13.529Z,26.66
2023-04-23T10:31:13.498Z,26.65
2023-04-23T10:32:13.491Z,26.61
2023-04-23T10:33:26.536Z,26.57
2023-04-23T10:34:14.510Z,26.45
2023-04-23T10:35:13.505Z,26.53
2023-04-23T10:36:13.458Z,26.52
2023-04-23T10:37:13.426Z,26.48
2023-04-23T10:38:13.467Z,26.47
2023-04-23T10:39:15.797Z,26.52
2023-04-23T10:40:14.624Z,26.50
2023-04-23T10:41:13.421Z,26.48
2023-04-23T10:42:13.491Z,26.48
2023-04-23T10:43:13.438Z,26.42
2023-04-23T10:44:15.319Z,26.46
2023-04-23T10:45:23.340Z,26.46
2023-04-23T10:46:14.453Z,26.48
2023-04-23T10:47:13.389Z,26.48
2023-04-23T10:48:13.382Z,26.45
2023-04-23T10:49:13.387Z,26.44
2023-04-23T10:50:13.389Z,26.39
2023-04-23T10:52:18.523Z,26.42
2023-04-23T10:53:14.402Z,26.38
2023-04-23T10:54:13.414Z,26.27
2023-04-23T10:55:13.320Z,26.34
2023-04-23T10:56:13.384Z,26.31
2023-04-23T10:57:13.333Z,26.25
2023-04-23T10:58:13.342Z,26.28
2023-04-23T10:59:13.313Z,26.34
2023-04-23T11:00:13.314Z,26.36
2023-04-23T11:01:13.325Z,26.35
2023-04-23T11:02:13.437Z,26.38
2023-04-23T11:03:13.340Z,26.38
2023-04-23T11:04:13.499Z,26.35
2023-04-23T11:05:13.272Z,26.35
2023-04-23T11:06:13.262Z,26.31
2023-04-23T11:07:13.262Z,26.33
2023-04-23T11:08:19.531Z,26.30
2023-04-23T11:09:14.245Z,26.23
2023-04-23T11:10:13.238Z,26.23
2023-04-23T11:11:13.237Z,26.21
2023-04-23T11:12:13.199Z,26.22
2023-04-23T11:13:13.230Z,26.25
2023-04-23T11:14:13.209Z,26.23
2023-04-23T11:15:13.278Z,26.24
2023-04-23T11:16:13.241Z,26.19
2023-04-23T11:17:13.229Z,26.12
2023-04-23T11:18:13.173Z,26.16
2023-04-23T11:19:13.184Z,26.03
2023-04-23T11:20:13.262Z,25.98
2023-04-23T11:21:13.194Z,25.98
2023-04-23T11:22:13.171Z,26.02
2023-04-23T11:23:13.170Z,26.01
2023-04-23T11:24:13.181Z,26.05
2023-04-23T11:25:13.185Z,25.99
2023-04-23T11:26:13.124Z,25.97
2023-04-23T11:27:13.132Z,25.95
2023-04-23T11:28:13.153Z,25.94
2023-04-23T11:29:13.111Z,25.90
2023-04-23T11:30:13.159Z,25.88
2023-04-23T11:31:13.122Z,25.88
2023-04-23T11:32:13.283Z,25.90
2023-04-23T11:33:13.074Z,25.87
2023-04-23T11:34:13.083Z,25.89
2023-04-23T11:35:13.832Z,25.87
2023-04-23T11:36:13.049Z,25.87
2023-04-23T11:37:13.108Z,25.85
2023-04-23T11:38:13.105Z,25.84
2023-04-23T11:39:13.086Z,25.94
2023-04-23T11:40:13.083Z,25.81
2023-04-23T11:41:13.024Z,25.87
2023-04-23T11:42:13.098Z,25.88
2023-04-23T11:43:13.030Z,25.83
2023-04-23T11:44:13.036Z,25.80
2023-04-23T11:45:13.013Z,25.79
2023-04-23T11:46:13.078Z,25.86
2023-04-23T11:47:13.046Z,25.84
2023-04-23T11:48:13.024Z,25.82
2023-04-23T11:49:12.984Z,25.81
2023-04-23T11:50:13.000Z,25.87
2023-04-23T11:51:12.945Z,25.83
2023-04-23T11:52:13.012Z,25.87
2023-04-23T11:53:12.969Z,25.86
2023-04-23T11:54:13.017Z,25.86
2023-04-23T11:55:13.027Z,25.86
2023-04-23T11:56:13.087Z,25.87
2023-04-23T11:57:13.550Z,25.83
2023-04-23T11:58:13.109Z,25.81
2023-04-23T11:59:13.141Z,25.80
2023-04-23T12:00:13.156Z,25.76
2023-04-23T12:01:13.218Z,25.59
2023-04-23T12:02:13.366Z,25.50
2023-04-23T12:03:13.411Z,25.60
2023-04-23T12:04:13.704Z,25.68
2023-04-23T12:05:13.539Z,25.60
2023-04-23T12:06:13.481Z,25.64
2023-04-23T12:07:25.834Z,25.60
2023-04-23T12:08:14.540Z,25.58
2023-04-23T12:09:13.516Z,25.67
2023-04-23T12:10:14.833Z,25.44
2023-04-23T12:11:13.597Z,25.49
2023-04-23T12:12:13.646Z,25.47
2023-04-23T12:13:13.704Z,25.50
2023-04-23T12:14:13.750Z,25.45
2023-04-23T12:15:13.834Z,25.44
2023-04-23T12:16:13.908Z,25.41
2023-04-23T12:17:13.990Z,25.26
2023-04-23T12:18:14.033Z,25.36
2023-04-23T12:19:14.113Z,25.37
2023-04-23T12:20:14.181Z,25.30
2023-04-23T12:21:14.224Z,25.29
2023-04-23T12:22:14.253Z,25.26
2023-04-23T12:23:14.347Z,25.33
2023-04-23T12:24:14.351Z,25.32
2023-04-23T12:25:14.408Z,25.26
2023-04-23T12:26:14.490Z,25.32
2023-04-23T12:27:14.522Z,25.30
2023-04-23T12:28:14.577Z,24.93
2023-04-23T12:29:14.568Z,25.05
2023-04-23T12:30:14.659Z,25.15
2023-04-23T12:31:14.672Z,25.15
2023-04-23T12:32:14.707Z,25.07
2023-04-23T12:33:14.812Z,25.11
2023-04-23T12:34:14.829Z,25.10
2023-04-23T12:35:15.019Z,25.10
2023-04-23T12:36:15.201Z,25.07
2023-04-23T12:37:14.999Z,25.09
2023-04-23T12:38:15.047Z,25.03
2023-04-23T12:39:15.112Z,25.03
2023-04-23T12:40:15.173Z,24.84
2023-04-23T12:41:15.238Z,24.94
2023-04-23T12:42:15.277Z,24.93
2023-04-23T12:43:15.301Z,24.88
2023-04-23T12:44:15.359Z,24.85
2023-04-23T12:45:15.502Z,24.82
2023-04-23T12:46:15.527Z,24.87
2023-04-23T12:47:15.562Z,24.82
2023-04-23T12:48:15.547Z,24.67
2023-04-23T12:49:15.643Z,24.63
2023-04-23T12:50:15.657Z,24.68
2023-04-23T12:51:15.844Z,24.73
2023-04-23T12:52:15.847Z,24.80
2023-04-23T12:53:15.899Z,24.70
2023-04-23T12:54:16.554Z,24.83
2023-04-23T12:55:15.949Z,24.77
2023-04-23T12:56:16.060Z,24.77